sensor_id;sensor_type;location;lat;lon;timestamp;pressure;altitude;pressure_sealevel;temperature;humidity
49979;BME280;35869;50.990;6.962;2024-01-15T00:01:45;100096.75;;;0.76;100.00
49979;BME280;35869;50.990;6.962;2024-01-15T00:06:45;100091.63;;;0.77;100.00
49979;BME280;35869;50.990;6.962;2024-01-15T00:11:45;100092.56;;;0.72;100.00
49979;BME280;35869;50.990;6.962;2024-01-15T00:16:46;100085.78;;;0.68;100.00
49979;BME280;35869;50.990;6.962;2024-01-15T00:21:47;100078.88;;;0.74;100.00
49979;BME280;35869;50.990;6.962;2024-01-15T00:26:47;100075.44;;;0.77;100.00
49979;BME280;35869;50.990;6.962;2024-01-15T00:31:47;100068.69;;;0.71;100.00
49979;BME280;35869;50.990;6.962;2024-01-15T00:36:48;100078.06;;;0.72;100.00
49979;BME280;35869;50.990;6.962;2024-01-15T00:41:48;100072.19;;;0.66;100.00
49979;BME280;35869;50.990;6.962;2024-01-15T00:46:48;100072.09;;;0.72;100.00
49979;BME280;35869;50.990;6.962;2024-01-15T00:51:48;100068.69;;;0.70;100.00
49979;BME280;35869;50.990;6.962;2024-01-15T00:56:48;100051.66;;;0.69;100.00
49979;BME280;35869;50.990;6.962;2024-01-15T01:01:49;100050.69;;;0.77;100.00
49979;BME280;35869;50.990;6.962;2024-01-15T01:06:49;100049.13;;;0.67;100.00
49979;BME280;35869;50.990;6.962;2024-01-15T01:11:49;100044.84;;;0.69;100.00
49979;BME280;35869;50.990;6.962;2024-01-15T01:16:49;100037.25;;;0.65;100.00
49979;BME280;35869;50.990;6.962;2024-01-15T01:21:49;100046.53;;;0.72;100.00
49979;BME280;35869;50.990;6.962;2024-01-15T01:26:50;100038.09;;;0.64;100.00
49979;BME280;35869;50.990;6.962;2024-01-15T01:31:50;100037.25;;;0.65;100.00
49979;BME280;35869;50.990;6.962;2024-01-15T01:36:50;100031.16;;;0.73;100.00
49979;BME280;35869;50.990;6.962;2024-01-15T01:41:50;100026.09;;;0.69;100.00
49979;BME280;35869;50.990;6.962;2024-01-15T01:46:50;100036.28;;;0.72;100.00
49979;BME280;35869;50.990;6.962;2024-01-15T01:51:51;100028.63;;;0.72;100.00
49979;BME280;35869;50.990;6.962;2024-01-15T01:56:51;100022.56;;;0.77;100.00
49979;BME280;35869;50.990;6.962;2024-01-15T02:01:54;100029.38;;;0.78;100.00
49979;BME280;35869;50.990;6.962;2024-01-15T02:06:54;100027.00;;;0.66;100.00
49979;BME280;35869;50.990;6.962;2024-01-15T02:11:54;100029.47;;;0.72;100.00
49979;BME280;35869;50.990;6.962;2024-01-15T02:16:55;100034.53;;;0.74;100.00
49979;BME280;35869;50.990;6.962;2024-01-15T02:21:55;100036.94;;;0.85;100.00
49979;BME280;35869;50.990;6.962;2024-01-15T02:26:55;100038.66;;;0.84;100.00
49979;BME280;35869;50.990;6.962;2024-01-15T02:31:55;100039.53;;;0.83;100.00
49979;BME280;35869;50.990;6.962;2024-01-15T02:36:56;100036.97;;;0.82;100.00
49979;BME280;35869;50.990;6.962;2024-01-15T02:41:56;100031.84;;;0.83;100.00
49979;BME280;35869;50.990;6.962;2024-01-15T02:46:56;100034.31;;;0.89;100.00
49979;BME280;35869;50.990;6.962;2024-01-15T02:51:56;100029.22;;;0.86;100.00
49979;BME280;35869;50.990;6.962;2024-01-15T02:56:56;100031.00;;;0.81;100.00
49979;BME280;35869;50.990;6.962;2024-01-15T03:01:57;100035.25;;;0.82;100.00
49979;BME280;35869;50.990;6.962;2024-01-15T03:06:57;100042.88;;;0.88;100.00
49979;BME280;35869;50.990;6.962;2024-01-15T03:11:57;100034.25;;;0.92;100.00
49979;BME280;35869;50.990;6.962;2024-01-15T03:16:57;100042.81;;;0.91;100.00
49979;BME280;35869;50.990;6.962;2024-01-15T03:21:57;100044.50;;;0.92;100.00
49979;BME280;35869;50.990;6.962;2024-01-15T03:26:57;100041.16;;;0.89;100.00
49979;BME280;35869;50.990;6.962;2024-01-15T03:31:58;100034.31;;;0.89;100.00
49979;BME280;35869;50.990;6.962;2024-01-15T03:36:58;100040.34;;;0.85;100.00
49979;BME280;35869;50.990;6.962;2024-01-15T03:41:58;100039.41;;;0.91;100.00
49979;BME280;35869;50.990;6.962;2024-01-15T03:46:58;100032.66;;;0.85;100.00
49979;BME280;35869;50.990;6.962;2024-01-15T03:51:58;100030.81;;;0.93;100.00
49979;BME280;35869;50.990;6.962;2024-01-15T03:56:59;100027.44;;;0.91;100.00
49979;BME280;35869;50.990;6.962;2024-01-15T04:01:59;100033.50;;;0.86;100.00
49979;BME280;35869;50.990;6.962;2024-01-15T04:06:59;100024.97;;;0.87;100.00
49979;BME280;35869;50.990;6.962;2024-01-15T04:11:59;100023.09;;;0.96;100.00
49979;BME280;35869;50.990;6.962;2024-01-15T04:16:59;100013.78;;;0.92;100.00
49979;BME280;35869;50.990;6.962;2024-01-15T04:22:00;100015.44;;;0.96;100.00
49979;BME280;35869;50.990;6.962;2024-01-15T04:27:00;100015.38;;;0.99;100.00
49979;BME280;35869;50.990;6.962;2024-01-15T04:32:00;100000.09;;;0.96;100.00
49979;BME280;35869;50.990;6.962;2024-01-15T04:37:00;100006.06;;;0.94;100.00
49979;BME280;35869;50.990;6.962;2024-01-15T04:42:01;100000.00;;;1.01;100.00
49979;BME280;35869;50.990;6.962;2024-01-15T04:47:01;99989.78;;;0.99;100.00
49979;BME280;35869;50.990;6.962;2024-01-15T04:52:01;99983.81;;;0.99;100.00
49979;BME280;35869;50.990;6.962;2024-01-15T04:57:02;99982.06;;;1.02;100.00
49979;BME280;35869;50.990;6.962;2024-01-15T05:02:02;99976.03;;;1.06;100.00
49979;BME280;35869;50.990;6.962;2024-01-15T05:07:03;99977.00;;;1.01;100.00
49979;BME280;35869;50.990;6.962;2024-01-15T05:12:03;99970.13;;;1.03;100.00
49979;BME280;35869;50.990;6.962;2024-01-15T05:17:03;99967.59;;;1.01;100.00
49979;BME280;35869;50.990;6.962;2024-01-15T05:22:04;99964.13;;;1.04;100.00
49979;BME280;35869;50.990;6.962;2024-01-15T05:27:04;99979.38;;;1.10;100.00
49979;BME280;35869;50.990;6.962;2024-01-15T05:32:04;99965.75;;;1.08;100.00
49979;BME280;35869;50.990;6.962;2024-01-15T05:37:04;99967.53;;;1.06;100.00
49979;BME280;35869;50.990;6.962;2024-01-15T05:42:05;99967.53;;;1.04;100.00
49979;BME280;35869;50.990;6.962;2024-01-15T05:47:05;99958.97;;;1.07;100.00
49979;BME280;35869;50.990;6.962;2024-01-15T05:52:05;99959.03;;;1.02;100.00
49979;BME280;35869;50.990;6.962;2024-01-15T05:57:05;99959.88;;;1.03;100.00
49979;BME280;35869;50.990;6.962;2024-01-15T06:02:06;99953.00;;;1.06;100.00
49979;BME280;35869;50.990;6.962;2024-01-15T06:07:06;99954.72;;;1.06;100.00
49979;BME280;35869;50.990;6.962;2024-01-15T06:12:07;99953.13;;;1.00;100.00
49979;BME280;35869;50.990;6.962;2024-01-15T06:17:07;99936.81;;;1.04;100.00
49979;BME280;35869;50.990;6.962;2024-01-15T06:22:07;99938.41;;;1.12;100.00
49979;BME280;35869;50.990;6.962;2024-01-15T06:27:08;99942.66;;;1.13;100.00
49979;BME280;35869;50.990;6.962;2024-01-15T06:32:11;99935.66;;;1.21;100.00
49979;BME280;35869;50.990;6.962;2024-01-15T06:37:13;99932.53;;;1.05;100.00
49979;BME280;35869;50.990;6.962;2024-01-15T06:42:15;99923.09;;;1.09;100.00
49979;BME280;35869;50.990;6.962;2024-01-15T06:47:15;99927.50;;;1.02;100.00
49979;BME280;35869;50.990;6.962;2024-01-15T06:52:15;99923.25;;;1.01;100.00
49979;BME280;35869;50.990;6.962;2024-01-15T06:57:15;99917.84;;;1.18;100.00
49979;BME280;35869;50.990;6.962;2024-01-15T07:02:16;99923.84;;;1.15;100.00
49979;BME280;35869;50.990;6.962;2024-01-15T07:07:16;99926.47;;;1.11;100.00
49979;BME280;35869;50.990;6.962;2024-01-15T07:12:16;99936.59;;;1.17;100.00
49979;BME280;35869;50.990;6.962;2024-01-15T07:17:16;99927.31;;;1.11;100.00
49979;BME280;35869;50.990;6.962;2024-01-15T07:22:16;99926.44;;;1.14;100.00
49979;BME280;35869;50.990;6.962;2024-01-15T07:27:17;99925.59;;;1.13;100.00
49979;BME280;35869;50.990;6.962;2024-01-15T07:32:17;99933.22;;;1.15;100.00
49979;BME280;35869;50.990;6.962;2024-01-15T07:37:17;99931.47;;;1.18;100.00
49979;BME280;35869;50.990;6.962;2024-01-15T07:42:18;99928.00;;;1.21;100.00
49979;BME280;35869;50.990;6.962;2024-01-15T07:47:18;99922.88;;;1.21;100.00
49979;BME280;35869;50.990;6.962;2024-01-15T07:52:19;99924.56;;;1.22;100.00
49979;BME280;35869;50.990;6.962;2024-01-15T07:57:19;99927.03;;;1.26;100.00
49979;BME280;35869;50.990;6.962;2024-01-15T08:02:19;99924.47;;;1.26;100.00
49979;BME280;35869;50.990;6.962;2024-01-15T08:07:19;99922.03;;;1.20;100.00
49979;BME280;35869;50.990;6.962;2024-01-15T08:12:20;99920.28;;;1.22;100.00
49979;BME280;35869;50.990;6.962;2024-01-15T08:17:20;99917.63;;;1.27;100.00
49979;BME280;35869;50.990;6.962;2024-01-15T08:22:22;99917.72;;;1.24;100.00
49979;BME280;35869;50.990;6.962;2024-01-15T08:27:24;99913.47;;;1.21;100.00
49979;BME280;35869;50.990;6.962;2024-01-15T08:32:25;99912.31;;;1.38;100.00
49979;BME280;35869;50.990;6.962;2024-01-15T08:37:25;99911.56;;;1.32;100.00
49979;BME280;35869;50.990;6.962;2024-01-15T08:42:25;99916.78;;;1.26;100.00
49979;BME280;35869;50.990;6.962;2024-01-15T08:47:25;99909.19;;;1.22;100.00
49979;BME280;35869;50.990;6.962;2024-01-15T08:52:26;99900.59;;;1.26;100.00
49979;BME280;35869;50.990;6.962;2024-01-15T08:57:26;99898.91;;;1.25;100.00
49979;BME280;35869;50.990;6.962;2024-01-15T09:02:26;99896.44;;;1.20;100.00
49979;BME280;35869;50.990;6.962;2024-01-15T09:07:26;99898.00;;;1.27;100.00
49979;BME280;35869;50.990;6.962;2024-01-15T09:12:27;99901.34;;;1.31;100.00
49979;BME280;35869;50.990;6.962;2024-01-15T09:17:28;99922.72;;;1.30;100.00
49979;BME280;35869;50.990;6.962;2024-01-15T09:22:28;99908.28;;;1.26;100.00
49979;BME280;35869;50.990;6.962;2024-01-15T09:27:28;99910.94;;;1.20;100.00
49979;BME280;35869;50.990;6.962;2024-01-15T09:32:28;99917.75;;;1.21;100.00
49979;BME280;35869;50.990;6.962;2024-01-15T09:37:28;99919.34;;;1.26;100.00
49979;BME280;35869;50.990;6.962;2024-01-15T09:42:29;99932.31;;;1.19;100.00
49979;BME280;35869;50.990;6.962;2024-01-15T09:47:30;99934.84;;;1.20;100.00
49979;BME280;35869;50.990;6.962;2024-01-15T09:52:30;99940.69;;;1.27;100.00
49979;BME280;35869;50.990;6.962;2024-01-15T09:57:31;99940.97;;;1.10;100.00
49979;BME280;35869;50.990;6.962;2024-01-15T10:02:32;99951.09;;;1.16;100.00
49979;BME280;35869;50.990;6.962;2024-01-15T10:07:34;99961.06;;;1.31;100.00
49979;BME280;35869;50.990;6.962;2024-01-15T10:12:35;99949.22;;;1.26;100.00
49979;BME280;35869;50.990;6.962;2024-01-15T10:17:37;99959.41;;;1.30;100.00
49979;BME280;35869;50.990;6.962;2024-01-15T10:22:42;99954.28;;;1.30;100.00
49979;BME280;35869;50.990;6.962;2024-01-15T10:27:43;99955.06;;;1.32;100.00
49979;BME280;35869;50.990;6.962;2024-01-15T10:32:57;99949.28;;;1.24;100.00
49979;BME280;35869;50.990;6.962;2024-01-15T10:38:02;99959.47;;;1.26;100.00
49979;BME280;35869;50.990;6.962;2024-01-15T10:43:02;99958.56;;;1.30;100.00
49979;BME280;35869;50.990;6.962;2024-01-15T10:48:04;99967.94;;;1.28;100.00
49979;BME280;35869;50.990;6.962;2024-01-15T10:53:05;99961.44;;;1.12;100.00
49979;BME280;35869;50.990;6.962;2024-01-15T10:58:06;99955.34;;;1.17;100.00
49979;BME280;35869;50.990;6.962;2024-01-15T11:03:06;99951.72;;;1.29;100.00
49979;BME280;35869;50.990;6.962;2024-01-15T11:08:08;99959.41;;;1.29;100.00
49979;BME280;35869;50.990;6.962;2024-01-15T11:13:15;99964.44;;;1.33;100.00
49979;BME280;35869;50.990;6.962;2024-01-15T11:18:19;99960.97;;;1.38;100.00
49979;BME280;35869;50.990;6.962;2024-01-15T11:23:49;99954.19;;;1.33;100.00
49979;BME280;35869;50.990;6.962;2024-01-15T11:28:50;99955.75;;;1.41;100.00
49979;BME280;35869;50.990;6.962;2024-01-15T11:33:50;99955.75;;;1.41;100.00
49979;BME280;35869;50.990;6.962;2024-01-15T11:38:50;99966.63;;;1.53;100.00
49979;BME280;35869;50.990;6.962;2024-01-15T11:43:51;99977.59;;;1.60;100.00
49979;BME280;35869;50.990;6.962;2024-01-15T11:48:57;99967.44;;;1.55;100.00
49979;BME280;35869;50.990;6.962;2024-01-15T11:54:06;99960.44;;;1.64;100.00
49979;BME280;35869;50.990;6.962;2024-01-15T11:59:10;99969.31;;;1.47;100.00
49979;BME280;35869;50.990;6.962;2024-01-15T12:04:10;99958.63;;;1.69;100.00
49979;BME280;35869;50.990;6.962;2024-01-15T12:09:11;99965.81;;;1.51;100.00
49979;BME280;35869;50.990;6.962;2024-01-15T12:14:11;99952.75;;;1.64;100.00
49979;BME280;35869;50.990;6.962;2024-01-15T12:19:11;99956.06;;;1.70;100.00
49979;BME280;35869;50.990;6.962;2024-01-15T12:24:11;99951.66;;;1.75;100.00
49979;BME280;35869;50.990;6.962;2024-01-15T12:29:11;99953.63;;;1.63;100.00
49979;BME280;35869;50.990;6.962;2024-01-15T12:34:12;99966.25;;;1.72;100.00
49979;BME280;35869;50.990;6.962;2024-01-15T12:39:12;99954.94;;;1.83;100.00
49979;BME280;35869;50.990;6.962;2024-01-15T12:44:12;99962.47;;;1.90;100.00
49979;BME280;35869;50.990;6.962;2024-01-15T12:49:13;99972.03;;;1.81;100.00
49979;BME280;35869;50.990;6.962;2024-01-15T12:54:13;99977.94;;;1.85;100.00
49979;BME280;35869;50.990;6.962;2024-01-15T12:59:13;99968.53;;;1.85;100.00
49979;BME280;35869;50.990;6.962;2024-01-15T13:04:23;99978.03;;;1.82;100.00
49979;BME280;35869;50.990;6.962;2024-01-15T13:09:24;99971.06;;;1.87;100.00
49979;BME280;35869;50.990;6.962;2024-01-15T13:14:24;99982.91;;;1.94;100.00
49979;BME280;35869;50.990;6.962;2024-01-15T13:19:24;99980.66;;;1.77;100.00
49979;BME280;35869;50.990;6.962;2024-01-15T13:24:24;99984.00;;;1.82;100.00
49979;BME280;35869;50.990;6.962;2024-01-15T13:29:24;99986.75;;;1.72;100.00
49979;BME280;35869;50.990;6.962;2024-01-15T13:34:25;99971.38;;;1.72;100.00
49979;BME280;35869;50.990;6.962;2024-01-15T13:39:25;99977.97;;;1.83;100.00
49979;BME280;35869;50.990;6.962;2024-01-15T13:44:25;99985.59;;;1.86;100.00
49979;BME280;35869;50.990;6.962;2024-01-15T13:49:25;99991.50;;;1.90;100.00
49979;BME280;35869;50.990;6.962;2024-01-15T13:54:26;99983.78;;;1.92;100.00
49979;BME280;35869;50.990;6.962;2024-01-15T13:59:26;99992.66;;;1.75;100.00
49979;BME280;35869;50.990;6.962;2024-01-15T14:04:26;99994.25;;;1.82;100.00
49979;BME280;35869;50.990;6.962;2024-01-15T14:09:26;100002.91;;;1.75;100.00
49979;BME280;35869;50.990;6.962;2024-01-15T14:14:26;100012.28;;;1.76;100.00
49979;BME280;35869;50.990;6.962;2024-01-15T14:19:27;100033.50;;;1.81;100.00
49979;BME280;35869;50.990;6.962;2024-01-15T14:24:27;100037.72;;;1.85;100.00
49979;BME280;35869;50.990;6.962;2024-01-15T14:29:27;100041.97;;;1.86;100.00
49979;BME280;35869;50.990;6.962;2024-01-15T14:34:27;100048.88;;;1.81;100.00
49979;BME280;35869;50.990;6.962;2024-01-15T14:39:28;100056.53;;;1.84;100.00
49979;BME280;35869;50.990;6.962;2024-01-15T14:44:28;100058.28;;;1.82;100.00
49979;BME280;35869;50.990;6.962;2024-01-15T14:49:28;100065.97;;;1.82;100.00
49979;BME280;35869;50.990;6.962;2024-01-15T14:54:28;100068.63;;;1.78;100.00
49979;BME280;35869;50.990;6.962;2024-01-15T14:59:28;100074.50;;;1.81;100.00
49979;BME280;35869;50.990;6.962;2024-01-15T15:04:29;100080.69;;;1.70;100.00
49979;BME280;35869;50.990;6.962;2024-01-15T15:09:29;100084.91;;;1.74;100.00
49979;BME280;35869;50.990;6.962;2024-01-15T15:14:29;100103.69;;;1.74;100.00
49979;BME280;35869;50.990;6.962;2024-01-15T15:19:29;100107.22;;;1.67;100.00
49979;BME280;35869;50.990;6.962;2024-01-15T15:24:29;100120.00;;;1.69;100.00
49979;BME280;35869;50.990;6.962;2024-01-15T15:29:30;100125.09;;;1.72;100.00
49979;BME280;35869;50.990;6.962;2024-01-15T15:34:30;100142.19;;;1.70;100.00
49979;BME280;35869;50.990;6.962;2024-01-15T15:39:33;100157.66;;;1.65;100.00
49979;BME280;35869;50.990;6.962;2024-01-15T15:44:50;100167.22;;;1.54;100.00
49979;BME280;35869;50.990;6.962;2024-01-15T15:49:51;100187.75;;;1.51;100.00
49979;BME280;35869;50.990;6.962;2024-01-15T15:54:51;100205.00;;;1.41;100.00
49979;BME280;35869;50.990;6.962;2024-01-15T15:59:51;100200.59;;;1.49;100.00
49979;BME280;35869;50.990;6.962;2024-01-15T16:04:51;100203.91;;;1.54;100.00
49979;BME280;35869;50.990;6.962;2024-01-15T16:09:51;100211.09;;;1.31;100.00
49979;BME280;35869;50.990;6.962;2024-01-15T16:14:52;100219.69;;;1.27;100.00
49979;BME280;35869;50.990;6.962;2024-01-15T16:19:52;100217.09;;;1.28;100.00
49979;BME280;35869;50.990;6.962;2024-01-15T16:24:52;100227.38;;;1.27;100.00
49979;BME280;35869;50.990;6.962;2024-01-15T16:29:52;100231.69;;;1.23;100.00
49979;BME280;35869;50.990;6.962;2024-01-15T16:34:53;100234.34;;;1.16;100.00
49979;BME280;35869;50.990;6.962;2024-01-15T16:39:53;100232.50;;;1.27;100.00
49979;BME280;35869;50.990;6.962;2024-01-15T16:44:53;100237.84;;;1.12;100.00
49979;BME280;35869;50.990;6.962;2024-01-15T16:49:54;100247.22;;;1.10;100.00
49979;BME280;35869;50.990;6.962;2024-01-15T16:54:54;100250.56;;;1.15;100.00
49979;BME280;35869;50.990;6.962;2024-01-15T16:59:54;100249.78;;;1.10;100.00
49979;BME280;35869;50.990;6.962;2024-01-15T17:04:54;100248.09;;;1.09;100.00
49979;BME280;35869;50.990;6.962;2024-01-15T17:09:54;100243.84;;;1.08;100.00
49979;BME280;35869;50.990;6.962;2024-01-15T17:14:55;100254.91;;;1.10;100.00
49979;BME280;35869;50.990;6.962;2024-01-15T17:19:55;100252.41;;;1.06;100.00
49979;BME280;35869;50.990;6.962;2024-01-15T17:24:55;100252.41;;;1.06;100.00
49979;BME280;35869;50.990;6.962;2024-01-15T17:29:55;100264.34;;;1.06;100.00
49979;BME280;35869;50.990;6.962;2024-01-15T17:34:55;100281.44;;;1.02;100.00
49979;BME280;35869;50.990;6.962;2024-01-15T17:39:56;100286.63;;;0.98;100.00
49979;BME280;35869;50.990;6.962;2024-01-15T17:44:56;100291.72;;;0.98;100.00
49979;BME280;35869;50.990;6.962;2024-01-15T17:49:56;100298.56;;;0.97;100.00
49979;BME280;35869;50.990;6.962;2024-01-15T17:54:56;100306.25;;;0.96;100.00
49979;BME280;35869;50.990;6.962;2024-01-15T17:59:56;100319.94;;;0.95;100.00
49979;BME280;35869;50.990;6.962;2024-01-15T18:04:57;100326.75;;;0.93;100.00
49979;BME280;35869;50.990;6.962;2024-01-15T18:09:57;100326.81;;;0.90;100.00
49979;BME280;35869;50.990;6.962;2024-01-15T18:14:58;100329.38;;;0.88;100.00
49979;BME280;35869;50.990;6.962;2024-01-15T18:19:58;100323.41;;;0.88;100.00
49979;BME280;35869;50.990;6.962;2024-01-15T18:24:58;100349.88;;;0.85;100.00
49979;BME280;35869;50.990;6.962;2024-01-15T18:29:58;100351.50;;;0.92;100.00
49979;BME280;35869;50.990;6.962;2024-01-15T18:34:58;100350.69;;;0.90;100.00
49979;BME280;35869;50.990;6.962;2024-01-15T18:39:59;100366.91;;;0.89;100.00
49979;BME280;35869;50.990;6.962;2024-01-15T18:44:59;100364.41;;;0.80;100.00
49979;BME280;35869;50.990;6.962;2024-01-15T18:49:59;100360.03;;;0.91;100.00
49979;BME280;35869;50.990;6.962;2024-01-15T18:54:59;100366.91;;;0.86;100.00
49979;BME280;35869;50.990;6.962;2024-01-15T19:00:00;100358.50;;;0.75;100.00
49979;BME280;35869;50.990;6.962;2024-01-15T19:05:00;100362.75;;;0.76;100.00
49979;BME280;35869;50.990;6.962;2024-01-15T19:10:00;100381.41;;;0.89;100.00
49979;BME280;35869;50.990;6.962;2024-01-15T19:15:00;100384.84;;;0.82;100.00
49979;BME280;35869;50.990;6.962;2024-01-15T19:20:00;100391.78;;;0.72;100.00
49979;BME280;35869;50.990;6.962;2024-01-15T19:25:01;100395.16;;;0.75;100.00
49979;BME280;35869;50.990;6.962;2024-01-15T19:30:01;100406.34;;;0.65;100.00
49979;BME280;35869;50.990;6.962;2024-01-15T19:35:01;100403.78;;;0.67;100.00
49979;BME280;35869;50.990;6.962;2024-01-15T19:40:02;100417.47;;;0.61;100.00
49979;BME280;35869;50.990;6.962;2024-01-15T19:45:03;100414.91;;;0.60;100.00
49979;BME280;35869;50.990;6.962;2024-01-15T19:50:04;100422.50;;;0.69;100.00
49979;BME280;35869;50.990;6.962;2024-01-15T19:55:04;100437.88;;;0.66;100.00
49979;BME280;35869;50.990;6.962;2024-01-15T20:00:06;100436.25;;;0.56;100.00
49979;BME280;35869;50.990;6.962;2024-01-15T20:05:07;100437.03;;;0.65;100.00
49979;BME280;35869;50.990;6.962;2024-01-15T20:10:08;100440.41;;;0.69;100.00
49979;BME280;35869;50.990;6.962;2024-01-15T20:15:08;100436.09;;;0.74;100.00
49979;BME280;35869;50.990;6.962;2024-01-15T20:20:09;100446.41;;;0.66;100.00
49979;BME280;35869;50.990;6.962;2024-01-15T20:25:09;100469.44;;;0.63;100.00
49979;BME280;35869;50.990;6.962;2024-01-15T20:30:10;100473.69;;;0.64;100.00
49979;BME280;35869;50.990;6.962;2024-01-15T20:35:10;100466.88;;;0.65;100.00
49979;BME280;35869;50.990;6.962;2024-01-15T20:40:11;100488.13;;;0.70;100.00
49979;BME280;35869;50.990;6.962;2024-01-15T20:45:11;100471.94;;;0.71;100.00
49979;BME280;35869;50.990;6.962;2024-01-15T20:50:12;100478.75;;;0.70;100.00
49979;BME280;35869;50.990;6.962;2024-01-15T20:55:12;100487.34;;;0.65;100.00
49979;BME280;35869;50.990;6.962;2024-01-15T21:00:12;100486.47;;;0.64;100.00
49979;BME280;35869;50.990;6.962;2024-01-15T21:05:13;100488.19;;;0.62;100.00
49979;BME280;35869;50.990;6.962;2024-01-15T21:10:13;100496.72;;;0.66;100.00
49979;BME280;35869;50.990;6.962;2024-01-15T21:15:14;100506.94;;;0.63;100.00
49979;BME280;35869;50.990;6.962;2024-01-15T21:20:14;100518.94;;;0.55;100.00
49979;BME280;35869;50.990;6.962;2024-01-15T21:25:14;100513.84;;;0.50;100.00
49979;BME280;35869;50.990;6.962;2024-01-15T21:30:15;100524.03;;;0.61;100.00
49979;BME280;35869;50.990;6.962;2024-01-15T21:35:15;100521.47;;;0.58;100.00
49979;BME280;35869;50.990;6.962;2024-01-15T21:40:15;100524.03;;;0.61;100.00
49979;BME280;35869;50.990;6.962;2024-01-15T21:45:15;100523.97;;;0.64;100.00
49979;BME280;35869;50.990;6.962;2024-01-15T21:50:15;100521.44;;;0.62;100.00
49979;BME280;35869;50.990;6.962;2024-01-15T21:55:17;100530.81;;;0.63;100.00
49979;BME280;35869;50.990;6.962;2024-01-15T22:00:17;100535.13;;;0.52;100.00
49979;BME280;35869;50.990;6.962;2024-01-15T22:05:17;100526.56;;;0.65;100.00
49979;BME280;35869;50.990;6.962;2024-01-15T22:10:21;100529.06;;;0.71;100.00
49979;BME280;35869;50.990;6.962;2024-01-15T22:15:21;100539.31;;;0.64;100.00
49979;BME280;35869;50.990;6.962;2024-01-15T22:20:22;100543.53;;;0.72;100.00
49979;BME280;35869;50.990;6.962;2024-01-15T22:25:22;100553.72;;;0.78;100.00
49979;BME280;35869;50.990;6.962;2024-01-15T22:30:22;100559.75;;;0.73;100.00
49979;BME280;35869;50.990;6.962;2024-01-15T22:35:22;100560.53;;;0.81;100.00
49979;BME280;35869;50.990;6.962;2024-01-15T22:40:22;100570.78;;;0.83;100.00
49979;BME280;35869;50.990;6.962;2024-01-15T22:45:23;100572.41;;;0.87;100.00
49979;BME280;35869;50.990;6.962;2024-01-15T22:50:23;100576.72;;;0.80;100.00
49979;BME280;35869;50.990;6.962;2024-01-15T22:55:23;100586.06;;;0.90;100.00
49979;BME280;35869;50.990;6.962;2024-01-15T23:00:23;100588.56;;;0.96;100.00
49979;BME280;35869;50.990;6.962;2024-01-15T23:05:24;100601.47;;;0.79;100.00
49979;BME280;35869;50.990;6.962;2024-01-15T23:10:24;100595.50;;;0.84;100.00
49979;BME280;35869;50.990;6.962;2024-01-15T23:15:24;100596.28;;;0.92;100.00
49979;BME280;35869;50.990;6.962;2024-01-15T23:20:25;100594.59;;;0.88;100.00
49979;BME280;35869;50.990;6.962;2024-01-15T23:25:25;100605.69;;;0.85;100.00
49979;BME280;35869;50.990;6.962;2024-01-15T23:30:25;100616.78;;;0.86;100.00
49979;BME280;35869;50.990;6.962;2024-01-15T23:35:25;100610.78;;;0.90;100.00
49979;BME280;35869;50.990;6.962;2024-01-15T23:40:25;100609.09;;;0.86;100.00
49979;BME280;35869;50.990;6.962;2024-01-15T23:45:26;100612.53;;;0.83;100.00
49979;BME280;35869;50.990;6.962;2024-01-15T23:50:26;100616.00;;;0.70;100.00
49979;BME280;35869;50.990;6.962;2024-01-15T23:55:26;100620.19;;;0.85;100.00
